createdAt,value
2019-03-20T00:01:43.183Z,2.80
2019-03-20T00:04:07.174Z,2.80
2019-03-20T00:06:39.184Z,2.80
2019-03-20T00:09:11.110Z,2.80
2019-03-20T00:11:43.407Z,2.80
2019-03-20T00:14:14.754Z,2.80
2019-03-20T00:16:46.933Z,2.80
2019-03-20T00:19:18.377Z,2.80
2019-03-20T00:21:50.179Z,2.70
2019-03-20T00:24:21.509Z,2.70
2019-03-20T00:26:52.898Z,2.70
2019-03-20T00:29:24.301Z,2.70
2019-03-20T00:31:55.723Z,2.70
2019-03-20T00:34:27.141Z,2.70
2019-03-20T00:37:00.473Z,2.70
2019-03-20T00:39:32.790Z,2.70
2019-03-20T00:42:05.791Z,2.70
2019-03-20T00:44:37.294Z,2.70
2019-03-20T00:47:09.031Z,2.70
2019-03-20T00:49:40.494Z,2.70
2019-03-20T00:52:13.078Z,2.70
2019-03-20T00:54:44.898Z,2.70
2019-03-20T00:57:16.399Z,2.70
2019-03-20T00:59:48.449Z,2.70
2019-03-20T01:02:20.284Z,2.70
2019-03-20T01:04:51.855Z,2.70
2019-03-20T01:07:23.320Z,2.70
2019-03-20T01:09:54.729Z,2.70
2019-03-20T01:12:26.327Z,2.70
2019-03-20T01:14:58.192Z,2.60
2019-03-20T01:17:29.747Z,2.70
2019-03-20T01:20:01.731Z,2.70
2019-03-20T01:22:33.088Z,2.70
2019-03-20T01:25:06.373Z,2.70
2019-03-20T01:27:37.815Z,2.60
2019-03-20T01:30:11.784Z,2.60
2019-03-20T01:32:43.251Z,2.60
2019-03-20T01:35:23.515Z,2.60
2019-03-20T01:37:52.968Z,2.60
2019-03-20T01:40:24.445Z,2.60
2019-03-20T01:42:55.731Z,2.60
2019-03-20T01:45:27.441Z,2.60
2019-03-20T01:47:59.085Z,2.60
2019-03-20T01:50:30.434Z,2.60
2019-03-20T01:53:03.036Z,2.60
2019-03-20T01:55:35.655Z,2.50
2019-03-20T01:58:06.975Z,2.50
2019-03-20T02:00:38.344Z,2.60
2019-03-20T02:03:09.742Z,2.50
2019-03-20T02:05:41.785Z,2.50
2019-03-20T02:08:13.140Z,2.50
2019-03-20T02:10:44.492Z,2.60
2019-03-20T02:13:15.816Z,2.50
2019-03-20T02:15:47.688Z,2.50
2019-03-20T02:18:19.120Z,2.50
2019-03-20T02:20:50.606Z,2.50
2019-03-20T02:23:21.984Z,2.50
2019-03-20T02:25:54.038Z,2.50
2019-03-20T02:28:25.561Z,2.50
2019-03-20T02:30:57.090Z,2.50
2019-03-20T02:33:28.665Z,2.50
2019-03-20T02:36:00.558Z,2.50
2019-03-20T02:38:32.001Z,2.50
2019-03-20T02:41:03.423Z,2.50
2019-03-20T02:43:35.161Z,2.50
2019-03-20T02:46:06.531Z,2.40
2019-03-20T02:48:38.047Z,2.40
2019-03-20T02:51:09.779Z,2.50
2019-03-20T02:53:41.121Z,2.50
2019-03-20T02:56:12.917Z,2.50
2019-03-20T02:58:44.415Z,2.50
2019-03-20T03:01:16.522Z,2.40
2019-03-20T03:03:48.505Z,2.40
2019-03-20T03:06:20.204Z,2.40
2019-03-20T03:08:51.466Z,2.40
2019-03-20T03:11:22.828Z,2.30
2019-03-20T03:13:54.727Z,2.40
2019-03-20T03:16:26.032Z,2.30
2019-03-20T03:18:58.511Z,2.30
2019-03-20T03:21:29.952Z,2.30
2019-03-20T03:24:01.507Z,2.30
2019-03-20T03:26:32.924Z,2.30
2019-03-20T03:29:05.351Z,2.20
2019-03-20T03:31:36.748Z,2.20
2019-03-20T03:34:08.561Z,2.20
2019-03-20T03:36:41.495Z,2.20
2019-03-20T03:39:12.970Z,2.20
2019-03-20T03:41:44.474Z,2.20
2019-03-20T03:44:15.873Z,2.20
2019-03-20T03:46:48.219Z,2.20
2019-03-20T03:49:20.593Z,2.30
2019-03-20T03:51:53.464Z,2.30
2019-03-20T03:54:25.228Z,2.30
2019-03-20T03:56:56.846Z,2.30
2019-03-20T03:59:28.443Z,2.30
2019-03-20T04:02:00.131Z,2.20
2019-03-20T04:04:31.452Z,2.20
2019-03-20T04:07:02.808Z,2.20
2019-03-20T04:09:34.138Z,2.20
2019-03-20T04:12:05.572Z,2.20
2019-03-20T04:14:36.836Z,2.20
2019-03-20T04:17:25.364Z,2.20
2019-03-20T04:19:56.672Z,2.20
2019-03-20T04:22:28.410Z,2.20
2019-03-20T04:25:00.465Z,2.20
2019-03-20T04:27:31.769Z,2.20
2019-03-20T04:30:03.159Z,2.10
2019-03-20T04:32:34.786Z,2.10
2019-03-20T04:35:06.226Z,2.10
2019-03-20T04:37:37.516Z,2.10
2019-03-20T04:40:09.923Z,2.20
2019-03-20T04:42:41.253Z,2.10
2019-03-20T04:45:13.000Z,2.10
2019-03-20T04:47:45.070Z,2.10
2019-03-20T04:50:16.774Z,2.10
2019-03-20T04:52:48.028Z,2.20
2019-03-20T04:55:19.315Z,2.20
2019-03-20T04:57:50.621Z,2.10
2019-03-20T05:00:21.932Z,2.10
2019-03-20T05:02:53.531Z,2.10
2019-03-20T05:05:25.417Z,2.10
2019-03-20T05:07:57.096Z,2.20
2019-03-20T05:10:28.518Z,2.20
2019-03-20T05:13:00.158Z,2.20
2019-03-20T05:15:31.506Z,2.30
2019-03-20T05:18:02.828Z,2.20
2019-03-20T05:20:34.144Z,2.30
2019-03-20T05:23:05.456Z,3.60
2019-03-20T05:25:36.790Z,5.80
2019-03-20T05:28:08.439Z,6.80
2019-03-20T05:30:39.836Z,7.10
2019-03-20T05:33:11.257Z,6.70
2019-03-20T05:35:42.961Z,6.50
2019-03-20T05:38:14.294Z,5.60
2019-03-20T05:40:46.175Z,5.50
2019-03-20T05:43:17.439Z,5.00
2019-03-20T05:45:48.828Z,4.60
2019-03-20T05:48:20.125Z,4.00
2019-03-20T05:50:51.406Z,3.80
2019-03-20T05:53:22.769Z,3.90
2019-03-20T05:55:54.548Z,4.00
2019-03-20T05:58:26.402Z,3.90
2019-03-20T06:00:57.716Z,3.90
2019-03-20T06:03:29.736Z,3.70
2019-03-20T06:06:01.503Z,3.70
2019-03-20T06:08:32.929Z,3.80
2019-03-20T06:11:04.252Z,3.90
2019-03-20T06:13:35.596Z,3.90
2019-03-20T06:16:07.383Z,3.80
2019-03-20T06:18:39.723Z,3.80
2019-03-20T06:21:11.007Z,3.80
2019-03-20T06:23:43.865Z,3.80
2019-03-20T06:26:16.235Z,3.90
2019-03-20T06:28:47.662Z,3.80
2019-03-20T06:31:19.158Z,4.00
2019-03-20T06:33:50.548Z,4.00
2019-03-20T06:36:22.551Z,4.00
2019-03-20T06:38:53.942Z,3.90
2019-03-20T06:41:26.004Z,4.10
2019-03-20T06:43:57.498Z,4.00
2019-03-20T06:46:29.636Z,4.30
2019-03-20T06:49:01.378Z,4.50
2019-03-20T06:51:32.797Z,4.60
2019-03-20T06:54:04.238Z,4.60
2019-03-20T06:56:36.125Z,4.70
2019-03-20T06:59:51.783Z,4.90
2019-03-20T07:02:23.195Z,5.00
2019-03-20T07:05:31.177Z,5.10
2019-03-20T07:08:02.766Z,5.30
2019-03-20T07:11:14.139Z,5.40
2019-03-20T07:13:46.029Z,5.30
2019-03-20T07:16:17.414Z,5.20
2019-03-20T07:18:48.667Z,5.20
2019-03-20T07:21:20.289Z,5.30
2019-03-20T07:23:51.985Z,5.30
2019-03-20T07:26:23.396Z,5.40
2019-03-20T07:28:54.847Z,5.40
2019-03-20T07:31:26.086Z,5.60
2019-03-20T07:33:57.473Z,5.60
2019-03-20T07:36:29.845Z,5.50
2019-03-20T07:39:01.447Z,5.60
2019-03-20T07:41:34.213Z,5.60
2019-03-20T07:44:06.260Z,5.70
2019-03-20T07:46:37.879Z,5.80
2019-03-20T07:49:09.704Z,5.80
2019-03-20T07:51:41.001Z,5.90
2019-03-20T07:54:12.554Z,5.90
2019-03-20T07:56:45.602Z,6.10
2019-03-20T07:59:17.011Z,6.10
2019-03-20T08:01:48.320Z,6.30
2019-03-20T08:04:19.688Z,6.30
2019-03-20T08:06:51.322Z,6.50
2019-03-20T08:09:25.328Z,6.60
2019-03-20T08:11:55.674Z,6.70
2019-03-20T08:14:26.974Z,6.50
2019-03-20T08:16:58.976Z,6.70
2019-03-20T08:19:30.365Z,6.80
2019-03-20T08:22:02.174Z,6.90
2019-03-20T08:24:33.617Z,7.10
2019-03-20T08:27:04.960Z,7.00
2019-03-20T08:29:36.391Z,7.10
2019-03-20T08:32:07.767Z,7.30
2019-03-20T08:34:39.563Z,7.50
2019-03-20T08:37:10.906Z,7.70
2019-03-20T08:39:44.430Z,7.80
2019-03-20T08:42:16.704Z,8.00
2019-03-20T08:44:48.174Z,8.00
2019-03-20T08:47:19.537Z,8.10
2019-03-20T08:49:51.009Z,8.10
2019-03-20T08:52:22.331Z,8.10
2019-03-20T08:54:54.058Z,8.30
2019-03-20T08:57:25.589Z,8.40
2019-03-20T08:59:56.951Z,8.60
2019-03-20T09:02:28.337Z,8.50
2019-03-20T09:05:00.387Z,8.50
2019-03-20T09:07:32.513Z,8.60
2019-03-20T09:10:04.182Z,8.60
2019-03-20T09:12:35.499Z,8.80
2019-03-20T09:15:08.721Z,8.70
2019-03-20T09:21:12.029Z,8.80
2019-03-20T09:23:44.570Z,8.50
2019-03-20T09:26:16.192Z,8.50
2019-03-20T09:28:48.388Z,8.50
2019-03-20T09:31:19.742Z,8.60
2019-03-20T09:33:52.750Z,8.60
2019-03-20T09:36:25.041Z,8.50
2019-03-20T09:42:10.018Z,8.70
2019-03-20T09:44:41.672Z,8.70
2019-03-20T09:47:13.205Z,8.80
2019-03-20T09:49:45.887Z,8.80
2019-03-20T09:52:17.351Z,8.80
2019-03-20T09:54:48.794Z,8.90
2019-03-20T09:57:21.164Z,9.00
2019-03-20T09:59:53.590Z,9.10
2019-03-20T10:02:25.112Z,9.20
2019-03-20T10:04:57.208Z,9.20
2019-03-20T10:07:29.078Z,9.20
2019-03-20T10:10:01.014Z,9.20
2019-03-20T10:12:32.630Z,9.40
2019-03-20T10:15:09.912Z,9.40
2019-03-20T10:17:41.380Z,9.50
2019-03-20T10:20:14.348Z,9.40
2019-03-20T10:22:45.742Z,9.70
2019-03-20T10:25:17.226Z,9.80
2019-03-20T10:27:49.116Z,9.90
2019-03-20T10:30:22.466Z,10.00
2019-03-20T10:32:54.040Z,10.10
2019-03-20T10:35:25.558Z,10.00
2019-03-20T10:37:56.983Z,10.00
2019-03-20T10:40:28.531Z,9.90
2019-03-20T10:43:00.413Z,9.80
2019-03-20T10:45:31.930Z,9.90
2019-03-20T10:48:03.360Z,10.20
2019-03-20T10:50:34.658Z,10.30
2019-03-20T10:53:06.116Z,10.20
2019-03-20T10:55:37.695Z,10.10
2019-03-20T10:58:09.059Z,9.90
2019-03-20T11:00:40.861Z,9.90
2019-03-20T11:03:13.193Z,9.90
2019-03-20T11:05:45.531Z,10.00
2019-03-20T11:08:16.916Z,10.20
2019-03-20T11:10:48.526Z,10.30
2019-03-20T11:13:19.873Z,10.40
2019-03-20T11:15:52.373Z,10.50
2019-03-20T11:18:23.756Z,10.50
2019-03-20T11:20:55.105Z,10.70
2019-03-20T11:23:26.764Z,10.80
2019-03-20T11:26:00.012Z,10.80
2019-03-20T11:28:31.767Z,10.90
2019-03-20T11:31:03.040Z,11.00
2019-03-20T11:33:35.527Z,11.30
2019-03-20T11:36:06.864Z,11.00
2019-03-20T11:38:38.353Z,10.80
2019-03-20T11:41:09.755Z,11.00
2019-03-20T11:43:41.070Z,11.30
2019-03-20T11:46:12.397Z,11.40
2019-03-20T11:48:44.337Z,11.50
2019-03-20T11:51:15.663Z,11.40
2019-03-20T11:53:47.811Z,11.40
2019-03-20T11:56:20.435Z,11.30
2019-03-20T11:58:51.883Z,11.30
2019-03-20T12:01:23.691Z,11.40
2019-03-20T12:03:55.809Z,11.30
2019-03-20T12:06:27.154Z,11.20
2019-03-20T12:08:59.025Z,11.20
2019-03-20T12:11:30.713Z,11.30
2019-03-20T12:14:02.356Z,11.40
2019-03-20T12:16:33.983Z,11.20
2019-03-20T12:19:05.821Z,11.20
2019-03-20T12:21:37.153Z,11.30
2019-03-20T12:24:08.487Z,11.50
2019-03-20T12:26:40.743Z,11.50
2019-03-20T12:29:13.057Z,11.50
2019-03-20T12:31:44.914Z,11.50
2019-03-20T12:34:16.332Z,11.60
2019-03-20T12:36:49.420Z,11.80
2019-03-20T12:39:22.082Z,11.80
2019-03-20T12:41:53.919Z,11.80
2019-03-20T12:44:26.677Z,11.90
2019-03-20T12:46:58.326Z,11.90
2019-03-20T12:49:29.726Z,11.90
2019-03-20T12:52:01.160Z,11.70
2019-03-20T12:54:32.523Z,11.60
2019-03-20T12:57:04.091Z,11.70
2019-03-20T12:59:35.349Z,11.70
2019-03-20T13:02:08.230Z,11.60
2019-03-20T13:04:40.073Z,11.60
2019-03-20T13:07:11.727Z,11.60
2019-03-20T13:09:43.368Z,11.70
2019-03-20T13:12:14.751Z,11.70
2019-03-20T13:14:47.159Z,11.50
2019-03-20T13:17:18.741Z,11.40
2019-03-20T13:19:50.750Z,11.40
2019-03-20T13:22:23.195Z,11.30
2019-03-20T13:24:54.573Z,11.40
2019-03-20T13:27:26.300Z,11.40
2019-03-20T13:29:58.734Z,11.60
2019-03-20T13:32:30.545Z,11.60
2019-03-20T13:35:02.479Z,11.70
2019-03-20T13:37:34.101Z,11.70
2019-03-20T13:40:13.831Z,11.60
2019-03-20T13:42:40.201Z,11.60
2019-03-20T13:45:14.161Z,11.50
2019-03-20T13:47:45.995Z,11.40
2019-03-20T13:50:17.597Z,11.40
2019-03-20T13:52:48.961Z,11.40
2019-03-20T13:55:20.498Z,11.40
2019-03-20T13:57:52.357Z,11.40
2019-03-20T14:00:24.351Z,11.40
2019-03-20T14:02:55.711Z,11.20
2019-03-20T14:05:27.047Z,11.30
2019-03-20T14:07:58.720Z,11.30
2019-03-20T14:10:30.901Z,11.30
2019-03-20T14:13:02.143Z,11.20
2019-03-20T14:15:34.337Z,11.30
2019-03-20T14:18:06.388Z,11.20
2019-03-20T14:20:39.423Z,11.20
2019-03-20T14:23:11.511Z,11.10
2019-03-20T14:25:43.780Z,11.10
2019-03-20T14:28:15.686Z,11.10
2019-03-20T14:30:47.974Z,11.20
2019-03-20T14:33:19.576Z,11.20
2019-03-20T14:35:51.211Z,11.30
2019-03-20T14:38:22.613Z,11.30
2019-03-20T14:40:54.892Z,11.30
2019-03-20T14:43:26.302Z,11.40
2019-03-20T14:45:57.821Z,11.20
2019-03-20T14:48:29.393Z,11.30
2019-03-20T14:51:01.504Z,11.30
2019-03-20T14:53:34.625Z,11.30
2019-03-20T14:56:05.985Z,11.40
2019-03-20T14:58:37.981Z,11.30
2019-03-20T15:01:09.814Z,11.30
2019-03-20T15:03:41.291Z,11.20
2019-03-20T15:06:12.930Z,11.20
2019-03-20T15:08:45.432Z,11.20
2019-03-20T15:11:17.805Z,11.20
2019-03-20T15:13:49.698Z,11.20
2019-03-20T15:16:21.056Z,11.10
2019-03-20T15:18:52.793Z,11.10
2019-03-20T15:21:24.238Z,11.00
2019-03-20T15:23:55.753Z,10.90
2019-03-20T15:26:27.585Z,11.00
2019-03-20T15:28:59.253Z,11.00
2019-03-20T15:31:30.624Z,11.00
2019-03-20T15:34:02.083Z,11.00
2019-03-20T15:36:35.773Z,11.10
2019-03-20T15:39:08.411Z,11.00
2019-03-20T15:41:40.715Z,11.00
2019-03-20T15:44:13.283Z,11.00
2019-03-20T15:46:46.059Z,11.00
2019-03-20T15:49:18.469Z,10.90
2019-03-20T15:51:49.927Z,10.90
2019-03-20T15:54:21.471Z,10.90
2019-03-20T15:56:52.879Z,10.90
2019-03-20T15:59:24.256Z,10.90
2019-03-20T16:01:56.645Z,11.00
2019-03-20T16:04:28.473Z,10.90
2019-03-20T16:07:00.595Z,10.90
2019-03-20T16:09:32.102Z,10.90
2019-03-20T16:12:03.578Z,10.80
2019-03-20T16:14:36.168Z,10.70
2019-03-20T16:17:07.755Z,10.70
2019-03-20T16:19:39.529Z,10.70
2019-03-20T16:22:12.558Z,10.70
2019-03-20T16:24:45.510Z,10.60
2019-03-20T16:27:16.966Z,10.60
2019-03-20T16:29:49.119Z,10.50
2019-03-20T16:32:21.017Z,10.50
2019-03-20T16:34:53.185Z,10.50
2019-03-20T16:37:26.169Z,10.50
2019-03-20T16:39:59.015Z,10.50
2019-03-20T16:42:31.555Z,10.40
2019-03-20T16:45:02.927Z,10.30
2019-03-20T16:47:34.393Z,10.30
2019-03-20T16:50:06.355Z,10.20
2019-03-20T16:52:37.831Z,10.30
2019-03-20T16:55:10.233Z,10.20
2019-03-20T16:57:41.873Z,10.10
2019-03-20T17:00:16.445Z,10.10
2019-03-20T17:02:47.777Z,10.10
2019-03-20T17:05:19.222Z,10.20
2019-03-20T17:07:50.699Z,10.20
2019-03-20T17:10:25.119Z,10.10
2019-03-20T17:12:57.239Z,10.10
2019-03-20T17:15:29.423Z,10.00
2019-03-20T17:18:01.067Z,10.10
2019-03-20T17:20:32.802Z,10.00
2019-03-20T17:23:04.485Z,10.10
2019-03-20T17:25:36.166Z,10.10
2019-03-20T17:28:07.810Z,10.00
2019-03-20T17:30:39.374Z,10.00
2019-03-20T17:33:10.835Z,10.00
2019-03-20T17:35:42.463Z,9.90
2019-03-20T17:38:13.806Z,10.00
2019-03-20T17:40:45.409Z,9.90
2019-03-20T17:43:16.823Z,9.90
2019-03-20T17:45:48.282Z,9.90
2019-03-20T17:48:19.738Z,9.90
2019-03-20T17:50:52.501Z,9.90
2019-03-20T17:53:24.270Z,9.90
2019-03-20T17:55:57.372Z,9.90
2019-03-20T17:58:28.981Z,9.90
2019-03-20T18:01:00.360Z,9.90
2019-03-20T18:03:31.853Z,9.90
2019-03-20T18:06:03.201Z,9.80
2019-03-20T18:08:35.207Z,9.80
2019-03-20T18:11:06.551Z,9.80
2019-03-20T18:13:37.879Z,9.70
2019-03-20T18:16:10.183Z,9.70
2019-03-20T18:18:41.646Z,9.70
2019-03-20T18:21:13.293Z,9.70
2019-03-20T18:23:44.882Z,9.60
2019-03-20T18:26:16.327Z,9.60
2019-03-20T18:28:47.946Z,9.60
2019-03-20T18:31:19.399Z,9.60
2019-03-20T18:33:50.872Z,9.50
2019-03-20T18:36:23.662Z,9.40
2019-03-20T18:38:55.069Z,9.40
2019-03-20T18:41:26.798Z,9.30
2019-03-20T18:43:59.110Z,9.30
2019-03-20T18:46:30.648Z,9.30
2019-03-20T18:49:02.330Z,9.30
2019-03-20T18:51:33.775Z,9.30
2019-03-20T18:54:06.530Z,9.30
2019-03-20T18:56:38.033Z,9.20
2019-03-20T18:59:09.351Z,9.30
2019-03-20T19:01:40.726Z,9.20
2019-03-20T19:04:12.375Z,9.10
2019-03-20T19:06:43.820Z,9.10
2019-03-20T19:09:15.393Z,9.10
2019-03-20T19:11:46.842Z,9.10
2019-03-20T19:14:18.186Z,9.00
2019-03-20T19:16:49.682Z,9.00
2019-03-20T19:19:21.079Z,9.00
2019-03-20T19:21:52.542Z,9.00
2019-03-20T19:24:23.927Z,9.00
2019-03-20T19:26:55.346Z,8.90
2019-03-20T19:29:27.446Z,9.00
2019-03-20T19:31:59.889Z,9.00
2019-03-20T19:34:31.241Z,8.90
2019-03-20T19:37:02.758Z,8.90
2019-03-20T19:39:34.275Z,9.00
2019-03-20T19:42:05.883Z,8.90
2019-03-20T19:44:37.260Z,8.90
2019-03-20T19:47:08.646Z,8.90
2019-03-20T19:49:41.506Z,8.90
2019-03-20T19:52:14.036Z,9.00
2019-03-20T19:54:46.260Z,9.10
2019-03-20T19:57:17.726Z,9.00
2019-03-20T19:59:49.385Z,9.10
2019-03-20T20:02:20.914Z,9.00
2019-03-20T20:04:52.262Z,8.90
2019-03-20T20:07:23.646Z,8.90
2019-03-20T20:09:55.296Z,8.90
2019-03-20T20:12:31.216Z,9.00
2019-03-20T20:14:59.938Z,8.90
2019-03-20T20:17:31.268Z,8.90
2019-03-20T20:20:02.765Z,8.90
2019-03-20T20:22:35.302Z,8.80
2019-03-20T20:25:07.096Z,8.90
2019-03-20T20:27:38.641Z,8.90
2019-03-20T20:30:12.652Z,8.90
2019-03-20T20:32:44.283Z,9.00
2019-03-20T20:35:15.640Z,8.90
2019-03-20T20:37:47.042Z,8.90
2019-03-20T20:40:18.593Z,8.90
2019-03-20T20:42:50.066Z,8.90
2019-03-20T20:45:21.680Z,8.90
2019-03-20T20:47:53.193Z,8.90
2019-03-20T20:50:24.668Z,9.00
2019-03-20T20:52:56.139Z,9.00
2019-03-20T20:55:27.455Z,8.90
2019-03-20T20:57:59.326Z,9.00
2019-03-20T21:00:30.939Z,9.00
2019-03-20T21:03:02.436Z,9.00
2019-03-20T21:05:33.965Z,9.00
2019-03-20T21:08:05.325Z,9.00
2019-03-20T21:10:36.790Z,9.00
2019-03-20T21:13:08.282Z,9.10
2019-03-20T21:15:44.912Z,9.00
2019-03-20T21:19:07.478Z,9.00
2019-03-20T21:22:01.784Z,9.00
2019-03-20T21:24:34.006Z,9.00
2019-03-20T21:27:46.330Z,8.90
2019-03-20T21:30:53.853Z,8.90
2019-03-20T21:33:50.193Z,8.90
2019-03-20T21:37:20.484Z,8.80
2019-03-20T21:39:53.118Z,8.70
2019-03-20T21:43:06.532Z,8.70
2019-03-20T21:46:11.778Z,8.70
2019-03-20T21:48:44.285Z,8.70
2019-03-20T21:51:17.519Z,8.60
2019-03-20T21:54:33.236Z,8.60
2019-03-20T21:57:43.626Z,8.60
2019-03-20T22:00:50.953Z,8.50
2019-03-20T22:03:23.019Z,8.50
2019-03-20T22:06:41.524Z,8.40
2019-03-20T22:10:15.268Z,8.40
2019-03-20T22:13:18.881Z,8.40
2019-03-20T22:16:48.683Z,8.30
2019-03-20T22:20:00.955Z,8.30
2019-03-20T22:23:22.676Z,8.30
2019-03-20T22:26:19.542Z,8.30
2019-03-20T22:29:07.604Z,8.20
2019-03-20T22:31:42.588Z,8.20
2019-03-20T22:34:43.216Z,8.30
2019-03-20T22:37:15.994Z,8.20
2019-03-20T22:40:26.171Z,8.20
2019-03-20T22:43:12.034Z,8.30
2019-03-20T22:46:36.056Z,8.20
2019-03-20T22:49:49.057Z,8.20
2019-03-20T22:52:45.545Z,8.10
2019-03-20T22:55:28.660Z,8.10
2019-03-20T22:58:48.783Z,8.00
2019-03-20T23:01:37.885Z,8.00
2019-03-20T23:04:14.339Z,8.00
2019-03-20T23:06:46.261Z,7.90
2019-03-20T23:09:18.736Z,7.90
2019-03-20T23:11:50.623Z,7.90
2019-03-20T23:14:22.837Z,7.90
2019-03-20T23:16:56.210Z,7.80
2019-03-20T23:19:28.217Z,7.90
2019-03-20T23:22:00.276Z,7.80
2019-03-20T23:24:32.294Z,7.80
2019-03-20T23:27:07.647Z,7.80
2019-03-20T23:29:39.744Z,7.80
2019-03-20T23:32:11.828Z,7.80
2019-03-20T23:34:43.958Z,7.80
2019-03-20T23:37:16.965Z,7.70
2019-03-20T23:39:48.893Z,7.70
2019-03-20T23:42:22.302Z,7.70
2019-03-20T23:44:55.019Z,7.70
2019-03-20T23:47:35.437Z,7.70
2019-03-20T23:50:08.556Z,7.60
2019-03-20T23:52:40.569Z,7.70
2019-03-20T23:55:14.373Z,7.70
2019-03-20T23:57:46.248Z,7.70
